UHSS

Details ICAO UHSS (UUS)
Name KHOMUTOVO
Region Russia
Timezone Asia/Sakhalin (UTC+11.0)
Plans Departing 113
Arriving 110
Stats Elevation 59 ft / 18 m (AMSL)
Location 46.885582° 142.717529°
Runways 1
Magnetic Variation 10.400° W
Sunrise 2018-06-23 18:36:23 UTC / 2018-06-24 05:36:23 Local
Sunset 2018-06-24 10:28:56 UTC / 2018-06-24 21:28:56 Local
Advertisement - Login to hide

Runways

ID Width Length Bearing (true) Bearing (mag) Surface Threshold Offset Overrun Length
01 148 ft / 45 m 11,109 ft / 3,386 m 0.66° 11.06° Concrete 0 ft / 0 m 255 ft / 78 m
19 148 ft / 45 m 11,109 ft / 3,386 m 180.66° 191.06° Concrete 0 ft / 0 m 265 ft / 81 m

Map

Weather


0- 5 10 15 20 25 30 35+ Temperature / ° C

Clouds and Precipitation
Forecast for 2018-06-24 06:00 UTC. Updated 5 hours ago

Ground ~20,000 ft ~40,000 ft Winds

METAR

UHSS 240830Z 35007MPS 9999 SCT024CB 10/07 Q1005 R01/70D NOSIG RMK MT OBSC QFE752/1003

TAF

TAF UHSS 240800Z 2409/2515 36006MPS 9999 BKN015CB OVC100 BECMG 2422/2424 36008G13MPS

Frequencies

Tower 120.60 MHz TWR
Warning: Do not use this data for real-world aviation or navigation. No guarantee of current accuracy is given.